Time;durP1;ratioP1;P1;durP2;ratioP2;P2;SDS_P1;SDS_P2;PMS_P1;PMS_P2;Temp;Humidity;BMP_temperature;BMP_pressure;BME280_temperature;BME280_humidity;BME280_pressure;Samples;Min_cycle;Max_cycle;Signal;HPM_P1;HPM_P2
2022/10/22 00:01:13;;;;;;;4.23;1.60;;;;;;;19.54;57.71;100819.78;5063375;28;20048;-61
2022/10/22 00:03:39;;;;;;;3.55;1.30;;;;;;;19.57;57.84;100824.78;5063247;28;20258;-60
2022/10/22 00:06:04;;;;;;;3.20;1.30;;;;;;;19.57;57.72;100823.97;5062715;28;20040;-61
2022/10/22 00:08:30;;;;;;;4.05;1.50;;;;;;;19.53;57.36;100826.03;5062630;28;20024;-59
2022/10/22 00:10:55;;;;;;;4.00;1.45;;;;;;;19.55;57.69;100823.25;5063035;28;20479;-59
2022/10/22 00:13:20;;;;;;;2.90;1.40;;;;;;;19.51;57.69;100814.75;5063051;28;20121;-59
2022/10/22 00:15:46;;;;;;;4.65;1.60;;;;;;;19.56;57.77;100831.03;5063126;28;20787;-61
2022/10/22 00:18:11;;;;;;;3.67;1.40;;;;;;;19.47;57.31;100810.72;5062309;28;20086;-61
2022/10/22 00:20:36;;;;;;;3.75;1.50;;;;;;;19.50;57.64;100820.16;5063126;28;20019;-60
2022/10/22 00:23:02;;;;;;;5.33;1.67;;;;;;;19.51;57.74;100822.69;5062462;28;20028;-62
2022/10/22 00:25:27;;;;;;;3.40;1.33;;;;;;;19.52;57.36;100827.00;5062762;28;20312;-59
2022/10/22 00:27:52;;;;;;;4.45;1.67;;;;;;;19.45;57.58;100809.19;5062513;28;20104;-60
2022/10/22 00:30:18;;;;;;;4.73;1.70;;;;;;;19.51;57.70;100822.69;5062826;28;20024;-61
2022/10/22 00:32:44;;;;;;;4.10;1.40;;;;;;;19.49;57.57;100826.44;5062559;28;20253;-59
2022/10/22 00:35:09;;;;;;;4.57;1.80;;;;;;;19.49;57.69;100831.75;5062643;28;20024;-60
2022/10/22 00:37:34;;;;;;;3.63;1.50;;;;;;;19.50;57.52;100836.88;5061999;28;20449;-60
2022/10/22 00:40:00;;;;;;;4.85;1.60;;;;;;;19.42;57.26;100825.28;5062682;28;20036;-60
2022/10/22 00:42:26;;;;;;;3.67;1.57;;;;;;;19.45;57.45;100830.31;5062416;28;20028;-60
2022/10/22 00:45:07;;;;;;;5.82;1.92;;;;;;;19.49;57.46;100839.66;5062165;28;20293;-60
2022/10/22 00:47:41;;;;;;;3.28;1.45;;;;;;;19.49;57.75;100837.03;5061264;28;20040;-61
2022/10/22 00:50:13;;;;;;;6.45;1.50;;;;;;;19.47;57.50;100831.00;5061933;28;20032;-59
2022/10/22 00:52:38;;;;;;;5.22;1.50;;;;;;;19.39;57.25;100819.31;5062488;28;20053;-62
2022/10/22 00:55:05;;;;;;;3.80;1.55;;;;;;;19.39;57.33;100823.75;5061951;28;20056;-61
2022/10/22 00:57:32;;;;;;;3.83;1.60;;;;;;;19.46;57.51;100829.34;5061879;28;20361;-60
2022/10/22 00:59:58;;;;;;;4.30;1.50;;;;;;;19.36;57.24;100813.47;5062276;28;20051;-61
2022/10/22 01:02:23;;;;;;;2.97;1.40;;;;;;;19.43;57.44;100821.69;5061644;28;20459;-62
2022/10/22 01:04:48;;;;;;;4.38;1.63;;;;;;;19.36;57.59;100824.88;5061922;28;20350;-61
2022/10/22 01:07:20;;;;;;;4.50;1.53;;;;;;;19.38;57.73;100827.38;5061561;28;20582;-60
2022/10/22 01:09:59;;;;;;;4.55;1.50;;;;;;;19.39;57.37;100826.38;5061480;28;20314;-60
2022/10/22 01:12:42;;;;;;;4.13;1.65;;;;;;;19.36;57.59;100821.41;5061775;28;20033;-60
2022/10/22 01:15:44;;;;;;;6.25;1.63;;;;;;;19.35;57.23;100823.19;5061791;28;20040;-60
2022/10/22 01:18:26;;;;;;;2.97;1.38;;;;;;;19.40;57.17;100828.91;5059056;28;20434;-59
2022/10/22 01:21:07;;;;;;;4.47;1.85;;;;;;;19.34;57.79;100821.53;5061518;28;20025;-63
2022/10/22 01:23:44;;;;;;;4.10;1.30;;;;;;;19.40;57.54;100830.72;5059865;28;20376;-59
2022/10/22 01:26:12;;;;;;;3.85;1.60;;;;;;;19.40;57.35;100828.91;5061411;28;20107;-60
2022/10/22 01:28:49;;;;;;;3.80;1.42;;;;;;;19.39;57.53;100829.88;5061695;28;20044;-61
2022/10/22 01:31:15;;;;;;;4.32;1.50;;;;;;;19.31;57.13;100810.38;5061651;28;20784;-60
2022/10/22 01:33:43;;;;;;;3.00;1.48;;;;;;;19.35;57.21;100825.81;5061422;28;20029;-61
2022/10/22 01:36:11;;;;;;;4.13;1.90;;;;;;;19.31;57.15;100815.66;5061073;28;20024;-59
2022/10/22 01:38:38;;;;;;;3.30;1.70;;;;;;;19.30;57.36;100814.81;5061258;28;20040;-60
2022/10/22 01:41:04;;;;;;;2.88;1.48;;;;;;;19.29;57.35;100809.69;5061478;28;20028;-60
2022/10/22 01:43:29;;;;;;;6.32;1.80;;;;;;;19.37;57.18;100812.47;5061214;28;20025;-61
2022/10/22 01:46:01;;;;;;;3.95;1.60;;;;;;;19.29;57.15;100802.56;5061211;28;20147;-59
2022/10/22 01:48:39;;;;;;;4.05;1.70;;;;;;;19.37;57.15;100820.41;5060911;28;20032;-62
2022/10/22 01:51:34;;;;;;;4.03;1.60;;;;;;;19.27;57.11;100799.22;5061551;28;20136;-60
2022/10/22 01:53:59;;;;;;;;;;;;;;;19.32;57.27;100814.69;5061838;28;20036;-62
2022/10/22 01:56:48;;;;;;;3.88;1.80;;;;;;;19.34;57.13;100810.97;5061181;28;19916;-60
2022/10/22 01:59:27;;;;;;;3.67;1.55;;;;;;;19.31;57.29;100816.50;5061225;28;20682;-60
2022/10/22 02:01:58;;;;;;;4.47;1.70;;;;;;;19.25;56.97;100803.81;5061434;28;20101;-59
2022/10/22 02:04:42;;;;;;;4.85;1.60;;;;;;;19.30;56.96;100821.94;5061002;28;20036;-59
2022/10/22 02:07:11;;;;;;;4.77;1.80;;;;;;;19.24;57.20;100811.88;5060945;28;20059;-61
2022/10/22 02:09:39;;;;;;;5.35;1.83;;;;;;;19.24;57.10;100815.34;5061155;28;20026;-60
2022/10/22 02:12:06;;;;;;;3.40;1.65;;;;;;;19.31;57.18;100826.22;5061031;28;20421;-59
2022/10/22 02:14:35;;;;;;;4.00;1.80;;;;;;;19.27;56.96;100824.84;5061245;28;20109;-60
2022/10/22 02:17:01;;;;;;;5.30;1.65;;;;;;;19.25;57.04;100821.47;5060888;28;20162;-59
2022/10/22 02:19:35;;;;;;;4.68;1.90;;;;;;;19.24;57.17;100819.81;5061033;28;20135;-60
2022/10/22 02:22:01;;;;;;;6.45;1.90;;;;;;;19.23;57.17;100813.66;5060535;28;20357;-59
2022/10/22 02:24:26;;;;;;;4.28;1.92;;;;;;;19.27;56.97;100825.66;5061228;28;20039;-58
2022/10/22 02:27:16;;;;;;;4.78;1.90;;;;;;;19.30;57.00;100829.84;5061070;28;20745;-62
2022/10/22 02:29:48;;;;;;;4.18;1.77;;;;;;;19.08;56.90;100794.72;5060337;28;20715;-61
2022/10/22 02:32:20;;;;;;;3.88;1.60;;;;;;;19.24;56.83;100825.91;5060810;28;20071;-62
2022/10/22 02:34:47;;;;;;;4.75;1.42;;;;;;;19.23;56.83;100820.78;5060979;28;20094;-60
2022/10/22 02:37:14;;;;;;;3.28;1.60;;;;;;;19.23;57.05;100816.31;5060643;28;20078;-59
2022/10/22 02:39:40;;;;;;;4.97;1.70;;;;;;;19.21;57.02;100818.25;5061046;28;20032;-60
2022/10/22 02:42:05;;;;;;;4.68;1.50;;;;;;;19.15;56.83;100803.78;5060966;28;20031;-60
2022/10/22 02:44:30;;;;;;;4.53;1.60;;;;;;;19.27;57.00;100824.84;5060398;28;20052;-61
2022/10/22 02:46:57;;;;;;;4.43;1.80;;;;;;;19.16;56.75;100815.19;5060595;28;20041;-60
2022/10/22 02:49:22;;;;;;;4.35;1.83;;;;;;;19.19;56.93;100822.84;5060247;28;20135;-60
2022/10/22 02:51:48;;;;;;;4.35;1.73;;;;;;;19.24;56.68;100831.22;5060942;28;20450;-60
2022/10/22 02:54:13;;;;;;;3.47;1.67;;;;;;;19.17;56.66;100827.44;5060507;28;20059;-60
2022/10/22 02:56:38;;;;;;;5.82;1.95;;;;;;;19.23;56.79;100839.25;5060580;28;20696;-61
2022/10/22 02:59:04;;;;;;;5.25;1.95;;;;;;;19.20;56.60;100835.06;5060484;28;20024;-62
2022/10/22 03:01:29;;;;;;;3.97;1.77;;;;;;;19.24;56.40;100844.41;5060529;28;20515;-60
2022/10/22 03:03:54;;;;;;;4.78;1.80;;;;;;;19.23;56.61;100840.09;5060038;28;20094;-61
2022/10/22 03:06:19;;;;;;;3.63;1.63;;;;;;;19.23;56.77;100842.72;5060968;28;20024;-60
2022/10/22 03:08:45;;;;;;;3.57;1.67;;;;;;;19.17;56.63;100832.72;5060398;28;20257;-61
2022/10/22 03:11:10;;;;;;;4.82;1.80;;;;;;;19.17;56.53;100836.19;5061750;28;20357;-61
2022/10/22 03:13:36;;;;;;;11.48;2.13;;;;;;;19.20;56.67;100851.78;5064011;28;20033;-61
2022/10/22 03:16:01;;;;;;;5.03;1.60;;;;;;;19.15;56.42;100839.91;5064049;28;20418;-60
2022/10/22 03:18:27;;;;;;;3.67;1.90;;;;;;;19.12;56.54;100832.25;5063739;28;20041;-61
2022/10/22 03:21:09;;;;;;;6.35;1.90;;;;;;;19.19;56.42;100842.16;5064243;28;20032;-60
2022/10/22 03:23:36;;;;;;;6.40;1.70;;;;;;;19.15;56.34;100846.06;5064004;28;20532;-60
2022/10/22 03:26:03;;;;;;;4.60;1.75;;;;;;;19.17;56.49;100845.94;5064153;28;20024;-62
2022/10/22 03:28:28;;;;;;;4.72;1.45;;;;;;;19.17;56.33;100845.94;5063443;28;20097;-60
2022/10/22 03:30:53;;;;;;;4.28;1.35;;;;;;;19.17;56.59;100848.56;5063706;28;20937;-62
2022/10/22 03:33:18;;;;;;;3.40;1.50;;;;;;;19.18;56.59;100848.44;5063526;28;20530;-60
2022/10/22 03:35:46;;;;;;;3.50;1.87;;;;;;;19.16;56.55;100849.53;5063948;28;21312;-59
2022/10/22 03:38:12;;;;;;;3.22;1.60;;;;;;;19.17;56.40;100857.31;5063393;28;20605;-60
2022/10/22 03:40:38;;;;;;;5.78;1.80;;;;;;;19.18;56.30;100863.44;5063486;28;20024;-60
2022/10/22 03:43:03;;;;;;;4.00;1.80;;;;;;;19.05;56.38;100842.50;5063920;28;20051;-61
2022/10/22 03:45:28;;;;;;;5.03;1.95;;;;;;;19.14;56.28;100864.69;5063571;28;20069;-62
2022/10/22 03:47:54;;;;;;;4.72;2.13;;;;;;;19.14;56.27;100865.50;5063238;28;20029;-63
2022/10/22 03:50:19;;;;;;;3.70;1.50;;;;;;;19.07;56.26;100861.69;5063629;28;20059;-60
2022/10/22 03:52:44;;;;;;;4.10;1.60;;;;;;;19.12;56.36;100874.50;5063527;28;20036;-62
2022/10/22 03:55:09;;;;;;;4.15;1.83;;;;;;;19.14;56.37;100876.06;5063309;28;20265;-61
2022/10/22 03:57:35;;;;;;;4.68;1.70;;;;;;;19.15;56.39;100877.75;5063313;28;20029;-63
2022/10/22 04:00:01;;;;;;;6.35;1.83;;;;;;;19.08;56.41;100865.19;5063327;28;20078;-60
2022/10/22 04:02:26;;;;;;;5.78;1.70;;;;;;;19.15;56.38;100884.81;5062998;28;20029;-60
2022/10/22 04:04:51;;;;;;;4.18;1.63;;;;;;;19.14;56.35;100875.25;5063196;28;20041;-62
2022/10/22 04:07:16;;;;;;;5.13;1.60;;;;;;;19.06;56.27;100867.09;5062902;28;20040;-61
2022/10/22 04:09:42;;;;;;;3.72;1.52;;;;;;;19.09;56.34;100870.34;5063164;28;20032;-61
2022/10/22 04:12:08;;;;;;;4.87;1.40;;;;;;;19.13;56.32;100879.66;5062988;28;20047;-61
2022/10/22 04:14:33;;;;;;;4.60;1.80;;;;;;;19.13;56.07;100882.31;5063097;28;20299;-60
2022/10/22 04:16:59;;;;;;;4.50;1.88;;;;;;;19.02;56.42;100870.00;5062337;28;20056;-60
2022/10/22 04:19:24;;;;;;;4.47;1.57;;;;;;;19.12;56.51;100890.38;5063013;28;20024;-60
2022/10/22 04:21:49;;;;;;;4.00;1.42;;;;;;;19.11;56.57;100894.81;5062142;28;20253;-60
2022/10/22 04:24:15;;;;;;;4.80;1.80;;;;;;;19.08;56.25;100891.63;5062363;28;20016;-60
2022/10/22 04:26:40;;;;;;;5.95;1.92;;;;;;;19.03;56.33;100879.63;5062537;28;21151;-60
2022/10/22 04:29:06;;;;;;;3.83;1.45;;;;;;;19.02;56.33;100885.84;5062740;28;20032;-62
2022/10/22 04:31:31;;;;;;;5.72;2.13;;;;;;;19.11;56.52;100886.06;5062179;28;20103;-59
2022/10/22 04:33:59;;;;;;;5.13;1.90;;;;;;;19.01;56.32;100881.56;5062631;28;20441;-60
2022/10/22 04:36:26;;;;;;;3.80;1.60;;;;;;;19.09;56.30;100899.41;5062491;28;20039;-63
2022/10/22 04:38:54;;;;;;;3.80;1.52;;;;;;;19.05;56.69;100890.06;5061946;28;20082;-59
2022/10/22 04:41:25;;;;;;;4.32;1.60;;;;;;;18.91;56.39;100867.44;5062919;28;20040;-60
2022/10/22 04:43:52;;;;;;;3.55;1.60;;;;;;;19.01;56.23;100881.56;5062117;28;20572;-60
2022/10/22 04:46:17;;;;;;;3.13;1.60;;;;;;;19.08;56.27;100897.72;5062352;28;20104;-63
2022/10/22 04:48:44;;;;;;;5.28;1.60;;;;;;;19.07;56.33;100896.03;5062435;28;20111;-59
2022/10/22 04:51:12;;;;;;;4.63;1.80;;;;;;;19.02;56.35;100885.84;5062067;28;20029;-60
2022/10/22 04:53:39;;;;;;;4.05;1.80;;;;;;;19.08;56.27;100897.72;5062391;28;20050;-59
2022/10/22 04:56:09;;;;;;;4.88;1.75;;;;;;;19.01;56.36;100889.47;5062369;28;20024;-62
2022/10/22 04:58:34;;;;;;;4.15;1.52;;;;;;;19.06;56.20;100897.03;5061363;28;20133;-61
2022/10/22 05:01:00;;;;;;;3.70;1.60;;;;;;;19.08;56.43;100904.81;5060623;28;20028;-60
2022/10/22 05:03:25;;;;;;;4.18;1.35;;;;;;;19.05;56.49;100894.50;5062057;28;20082;-59
2022/10/22 05:05:50;;;;;;;4.93;1.80;;;;;;;19.07;56.40;100903.97;5062310;28;20415;-60
2022/10/22 05:08:15;;;;;;;4.37;1.70;;;;;;;19.04;56.13;100901.56;5061886;28;20266;-60
2022/10/22 05:10:41;;;;;;;4.47;1.40;;;;;;;18.87;56.42;100879.25;5062110;28;20269;-60
2022/10/22 05:13:06;;;;;;;5.75;1.60;;;;;;;19.07;56.52;100903.97;5061847;28;20303;-58
2022/10/22 05:15:32;;;;;;;6.07;1.83;;;;;;;19.05;56.19;100897.97;5061574;28;20064;-60
2022/10/22 05:17:58;;;;;;;4.18;1.55;;;;;;;18.99;56.58;100895.84;5061751;28;20265;-61
2022/10/22 05:20:23;;;;;;;5.75;1.75;;;;;;;19.06;56.38;100910.22;5061607;28;20082;-60
2022/10/22 05:22:48;;;;;;;3.33;1.27;;;;;;;18.99;56.40;100904.63;5061581;28;20555;-59
2022/10/22 05:25:13;;;;;;;5.43;2.30;;;;;;;19.04;56.37;100906.84;5061731;28;20047;-59
2022/10/22 05:27:39;;;;;;;3.97;1.40;;;;;;;19.06;56.46;100909.38;5060330;28;20032;-59
2022/10/22 05:30:05;;;;;;;5.95;1.73;;;;;;;19.00;56.60;100908.09;5061401;28;20032;-62
2022/10/22 05:32:30;;;;;;;3.97;1.65;;;;;;;19.06;56.55;100914.66;5061713;28;20047;-60
2022/10/22 05:34:55;;;;;;;5.07;1.93;;;;;;;19.07;56.35;100914.53;5061028;28;20035;-63
2022/10/22 05:37:20;;;;;;;5.70;1.50;;;;;;;19.07;56.52;100909.25;5061355;28;20287;-60
2022/10/22 05:39:46;;;;;;;4.23;1.50;;;;;;;19.09;56.65;100920.53;5061360;28;20407;-60
2022/10/22 05:42:11;;;;;;;4.53;1.60;;;;;;;19.11;56.42;100920.41;5061534;28;20264;-59
2022/10/22 05:44:37;;;;;;;4.60;1.77;;;;;;;19.05;56.29;100915.63;5060705;28;20269;-58
2022/10/22 05:47:03;;;;;;;5.65;1.77;;;;;;;19.06;56.17;100912.88;5061212;28;20028;-59
2022/10/22 05:49:28;;;;;;;4.93;1.80;;;;;;;19.02;56.37;100912.28;5059779;28;20464;-60
2022/10/22 05:51:53;;;;;;;4.82;1.48;;;;;;;19.09;56.50;100923.19;5061210;28;20055;-61
2022/10/22 05:54:20;;;;;;;4.32;1.75;;;;;;;19.14;56.63;100926.25;5061287;28;20024;-63
2022/10/22 05:56:46;;;;;;;5.53;1.60;;;;;;;19.18;56.53;100935.63;5061079;28;20035;-60
2022/10/22 05:59:11;;;;;;;5.05;1.85;;;;;;;19.12;56.60;100924.72;5060779;28;20033;-61
2022/10/22 06:01:38;;;;;;;5.40;1.60;;;;;;;19.20;56.57;100941.59;5061082;28;20376;-61
2022/10/22 06:04:06;;;;;;;4.70;1.60;;;;;;;19.20;56.57;100943.38;5061281;28;20261;-60
2022/10/22 06:06:31;;;;;;;4.25;1.48;;;;;;;19.21;56.25;100945.91;5060901;28;20036;-61
2022/10/22 06:09:03;;;;;;;4.32;1.60;;;;;;;19.15;56.50;100942.94;5060877;28;20036;-61
2022/10/22 06:11:29;;;;;;;5.30;1.92;;;;;;;19.18;56.58;100940.91;5061050;28;20033;-60
2022/10/22 06:13:54;;;;;;;4.45;1.63;;;;;;;19.16;56.65;100939.34;5060849;28;20039;-60
2022/10/22 06:16:19;;;;;;;5.33;1.90;;;;;;;19.21;56.49;100959.09;5060416;28;20113;-61
2022/10/22 06:18:44;;;;;;;4.97;1.50;;;;;;;19.23;56.47;100968.72;5061172;28;20253;-62
2022/10/22 06:21:13;;;;;;;5.03;1.60;;;;;;;19.16;56.66;100956.03;5060918;28;20345;-63
2022/10/22 06:23:39;;;;;;;4.80;1.70;;;;;;;19.20;56.59;100972.44;5060793;28;20036;-60
2022/10/22 06:26:05;;;;;;;6.00;1.70;;;;;;;19.14;56.37;100963.25;5061011;28;20039;-60
2022/10/22 06:28:31;;;;;;;5.63;1.60;;;;;;;19.14;56.56;100968.53;5060311;28;20029;-60
2022/10/22 06:30:57;;;;;;;5.32;1.60;;;;;;;19.16;56.70;100971.03;5060849;28;20946;-60
2022/10/22 06:33:23;;;;;;;6.78;1.70;;;;;;;19.23;56.72;100987.22;5061019;28;20043;-60
2022/10/22 06:35:48;;;;;;;5.15;1.75;;;;;;;19.14;56.50;100979.09;5060621;28;20036;-60
2022/10/22 06:38:14;;;;;;;4.60;1.40;;;;;;;19.22;56.73;100991.69;5060861;28;20427;-61
2022/10/22 06:40:42;;;;;;;5.23;1.60;;;;;;;19.24;57.07;100995.03;5060852;28;20037;-60
2022/10/22 06:43:08;;;;;;;5.07;1.60;;;;;;;19.20;57.10;100986.53;5060650;28;20254;-60
2022/10/22 06:45:33;;;;;;;6.30;1.95;;;;;;;19.16;57.23;100985.09;5060608;28;21015;-60
2022/10/22 06:47:58;;;;;;;4.63;1.67;;;;;;;19.28;57.06;101009.66;5064761;28;20107;-61
2022/10/22 06:50:23;;;;;;;4.50;1.60;;;;;;;19.25;57.08;100999.34;5064368;28;20737;-60
2022/10/22 06:52:49;;;;;;;4.27;1.60;;;;;;;19.32;56.87;101013.72;5064633;28;20656;-63
2022/10/22 06:55:14;;;;;;;4.87;1.90;;;;;;;19.28;57.01;101007.03;5064272;28;20303;-63
2022/10/22 06:57:39;;;;;;;3.83;1.55;;;;;;;19.35;57.15;101023.19;5064018;28;20288;-60
2022/10/22 07:00:06;;;;;;;4.05;1.60;;;;;;;19.35;57.09;101023.19;5063610;28;20024;-61
2022/10/22 07:02:31;;;;;;;5.18;1.60;;;;;;;19.38;57.09;101030.88;5064325;28;20082;-60
2022/10/22 07:04:56;;;;;;;5.90;1.58;;;;;;;19.37;57.09;101037.09;5064358;28;20028;-60
2022/10/22 07:07:21;;;;;;;4.80;1.33;;;;;;;19.38;57.13;101049.38;5064097;28;20116;-60
2022/10/22 07:09:48;;;;;;;4.60;1.93;;;;;;;19.39;56.85;101053.66;5064030;28;20265;-62
2022/10/22 07:12:14;;;;;;;5.95;1.75;;;;;;;19.29;57.10;101032.47;5063877;28;20257;-60
2022/10/22 07:14:39;;;;;;;5.50;1.60;;;;;;;19.37;57.28;101047.69;5064395;28;20033;-62
2022/10/22 07:17:04;;;;;;;6.60;1.60;;;;;;;19.38;56.96;101052.00;5063853;28;20033;-59
2022/10/22 07:19:30;;;;;;;6.20;2.05;;;;;;;19.42;57.23;101061.34;5064195;28;20398;-60
2022/10/22 07:21:55;;;;;;;3.60;1.40;;;;;;;19.41;57.01;101059.69;5064112;28;20029;-59
2022/10/22 07:24:21;;;;;;;6.00;1.70;;;;;;;19.37;56.99;101051.16;5064339;28;20517;-61
2022/10/22 07:26:46;;;;;;;5.37;1.93;;;;;;;19.45;57.22;101071.66;5063761;28;20032;-62
2022/10/22 07:29:11;;;;;;;5.70;1.57;;;;;;;19.38;57.19;101055.47;5063800;28;20269;-62
2022/10/22 07:31:37;;;;;;;5.47;1.92;;;;;;;19.47;57.44;101067.09;5063565;28;20253;-60
2022/10/22 07:34:02;;;;;;;7.60;1.77;;;;;;;19.42;57.39;101065.81;5064034;28;20120;-62
2022/10/22 07:36:27;;;;;;;8.90;1.90;;;;;;;19.50;57.42;101081.84;5063548;28;20039;-59
2022/10/22 07:38:56;;;;;;;4.00;1.40;;;;;;;19.42;57.51;101071.91;5063741;28;20033;-61
2022/10/22 07:41:22;;;;;;;6.07;1.88;;;;;;;19.52;57.65;101088.69;5063407;28;20028;-60
2022/10/22 07:43:47;;;;;;;4.40;1.60;;;;;;;19.52;57.57;101091.34;5062957;28;20748;-59
2022/10/22 07:46:13;;;;;;;5.93;1.70;;;;;;;19.49;57.13;101086.31;5063509;28;20047;-61
2022/10/22 07:48:38;;;;;;;5.45;1.58;;;;;;;19.51;57.25;101089.66;5063371;28;20265;-62
2022/10/22 07:51:04;;;;;;;8.75;1.98;;;;;;;19.48;57.56;101079.34;5063521;28;20029;-60
2022/10/22 07:53:30;;;;;;;3.67;1.60;;;;;;;19.55;57.27;101090.22;5063154;28;20986;-61
2022/10/22 07:55:55;;;;;;;5.60;1.83;;;;;;;19.58;57.19;101095.25;5063178;28;20067;-61
2022/10/22 07:58:21;;;;;;;4.53;1.42;;;;;;;19.59;57.42;101102.25;5062876;28;20033;-61
2022/10/22 08:00:48;;;;;;;7.63;1.70;;;;;;;19.56;57.38;101100.69;5062915;28;20081;-61
2022/10/22 08:03:16;;;;;;;4.13;1.20;;;;;;;19.58;57.34;101100.56;5063402;28;20112;-62
2022/10/22 08:05:44;;;;;;;4.22;1.45;;;;;;;19.53;57.26;101094.81;5063366;28;20036;-64
2022/10/22 08:08:11;;;;;;;5.10;1.98;;;;;;;19.55;57.50;101104.31;5062622;28;20024;-63
2022/10/22 08:10:37;;;;;;;8.52;1.70;;;;;;;19.53;57.49;101094.81;5063099;28;20081;-62
2022/10/22 08:13:02;;;;;;;5.28;1.92;;;;;;;19.56;57.45;101108.59;5063020;28;20032;-61
2022/10/22 08:15:27;;;;;;;4.38;1.50;;;;;;;19.58;57.48;101111.97;5062749;28;20070;-61
2022/10/22 08:17:52;;;;;;;6.18;1.80;;;;;;;19.66;57.44;101123.72;5062602;28;20038;-61
2022/10/22 08:20:19;;;;;;;3.43;1.33;;;;;;;19.58;57.33;101111.97;5062642;28;20032;-60
2022/10/22 08:22:44;;;;;;;7.07;1.80;;;;;;;19.69;57.66;101126.09;5056767;28;20273;-62
2022/10/22 08:25:10;;;;;;;5.90;1.30;;;;;;;19.62;57.47;101117.84;5062425;28;20024;-61
2022/10/22 08:27:36;;;;;;;6.88;1.60;;;;;;;19.68;57.75;101129.72;5062900;28;20089;-61
2022/10/22 08:30:02;;;;;;;5.20;1.48;;;;;;;19.70;57.42;101143.66;5062521;28;20037;-62
2022/10/22 08:32:27;;;;;;;5.25;1.13;;;;;;;19.69;57.47;101144.59;5062437;28;20028;-62
2022/10/22 08:34:53;;;;;;;4.40;1.47;;;;;;;19.71;57.57;101145.31;5062853;28;20103;-61
2022/10/22 08:37:18;;;;;;;5.43;1.47;;;;;;;19.68;57.74;101149.06;5062443;28;20293;-61
2022/10/22 08:39:44;;;;;;;5.20;1.67;;;;;;;19.66;57.57;101136.94;5062050;28;20280;-60
2022/10/22 08:42:43;;;;;;;4.60;1.30;;;;;;;19.62;57.72;101141.63;5060885;28;20380;-66
2022/10/22 08:45:12;;;;;;;4.70;1.27;;;;;;;19.64;57.98;101150.28;5060677;28;20062;-68
2022/10/22 08:47:59;;;;;;;4.28;1.50;;;;;;;19.75;57.91;101167.91;5061278;28;20443;-70
2022/10/22 08:50:45;;;;;;;5.85;1.27;;;;;;;19.74;57.79;101163.56;5061778;28;20135;-70
2022/10/22 08:53:20;;;;;;;5.82;1.30;;;;;;;19.82;57.70;101182.34;5061201;28;20032;-66
2022/10/22 08:55:46;;;;;;;5.05;1.52;;;;;;;19.79;57.33;101165.88;5060754;28;20032;-70
2022/10/22 08:58:17;;;;;;;3.50;1.30;;;;;;;19.87;57.70;101177.50;5061238;28;20116;-69
2022/10/22 09:00:46;;;;;;;5.03;1.30;;;;;;;19.82;57.56;101174.41;5061753;28;20024;-68
2022/10/22 09:03:30;;;;;;;3.67;1.50;;;;;;;19.91;57.25;101184.19;5060965;28;20036;-68
2022/10/22 09:06:12;;;;;;;5.63;1.42;;;;;;;19.91;56.90;101183.38;5061241;28;20046;-67
2022/10/22 09:08:39;;;;;;;4.03;1.50;;;;;;;19.95;57.17;101187.44;5060686;28;20046;-67
2022/10/22 09:11:10;;;;;;;4.95;1.40;;;;;;;19.94;57.05;101183.94;5061126;28;20028;-69
2022/10/22 09:13:36;;;;;;;4.43;1.30;;;;;;;19.99;56.83;101193.31;5061092;28;20032;-68
2022/10/22 09:16:24;;;;;;;5.07;1.10;;;;;;;20.04;56.80;101206.97;5060607;28;20032;-69
2022/10/22 09:19:04;;;;;;;4.20;1.27;;;;;;;20.05;57.04;101206.84;5060169;28;20032;-70
2022/10/22 09:21:38;;;;;;;5.18;1.40;;;;;;;20.03;56.84;101197.38;5060619;28;20036;-62
2022/10/22 09:24:27;;;;;;;4.88;1.63;;;;;;;20.08;56.71;101219.81;4939730;28;20078;-61
2022/10/22 09:26:55;;;;;;;4.68;1.48;;;;;;;20.01;56.93;101208.09;5040166;28;20029;-62
2022/10/22 09:29:27;;;;;;;5.97;1.25;;;;;;;19.94;57.06;101205.09;5040783;28;20029;-61
2022/10/22 09:31:52;;;;;;;4.00;1.17;;;;;;;20.02;56.93;101224.81;5040050;28;20029;-62
2022/10/22 09:34:21;;;;;;;5.33;1.10;;;;;;;19.97;57.07;101211.13;5039736;28;20490;-68
2022/10/22 09:36:46;;;;;;;5.50;1.45;;;;;;;20.00;56.96;101218.81;5040736;28;20340;-67
2022/10/22 09:39:50;;;;;;;5.03;1.27;;;;;;;20.08;56.87;101235.69;5040251;28;20068;-66
2022/10/22 09:42:17;;;;;;;3.88;1.30;;;;;;;20.09;56.58;101228.59;5018306;28;20063;-68
2022/10/22 09:44:43;;;;;;;6.72;1.40;;;;;;;20.12;56.74;101244.22;5036674;28;20049;-68
2022/10/22 09:47:30;;;;;;;5.47;1.20;;;;;;;20.14;56.55;101236.16;5040576;28;20044;-68
2022/10/22 09:50:19;;;;;;;3.75;1.55;;;;;;;20.14;56.80;101239.66;5040475;28;20052;-63
2022/10/22 09:52:44;;;;;;;4.18;1.50;;;;;;;20.13;56.49;101247.72;5039830;28;20094;-62
2022/10/22 09:55:17;;;;;;;6.25;1.35;;;;;;;20.03;56.80;101237.91;5040538;28;20037;-60
2022/10/22 09:57:51;;;;;;;3.87;1.13;;;;;;;20.07;56.95;101252.53;5040784;28;20025;-59
2022/10/22 10:00:18;;;;;;;3.92;1.10;;;;;;;20.05;56.79;101248.34;5040515;28;20029;-59
2022/10/22 10:02:44;;;;;;;5.70;1.40;;;;;;;20.05;57.01;101259.78;5041253;28;20048;-60
2022/10/22 10:05:19;;;;;;;5.07;1.10;;;;;;;20.01;56.65;101258.38;5040891;28;20025;-60
2022/10/22 10:07:46;;;;;;;3.13;1.27;;;;;;;20.01;56.75;101263.66;5041032;28;20269;-59
2022/10/22 10:10:40;;;;;;;5.18;1.40;;;;;;;20.00;57.03;101272.53;5040964;28;20029;-60
2022/10/22 10:13:38;;;;;;;4.73;1.33;;;;;;;19.92;56.97;101270.53;5040229;28;20044;-59
2022/10/22 10:16:41;;;;;;;4.38;1.20;;;;;;;19.99;56.84;101283.25;5040853;28;20358;-59
2022/10/22 10:19:25;;;;;;;8.75;1.95;;;;;;;19.99;56.91;101296.47;5039617;28;20120;-68
2022/10/22 10:21:53;;;;;;;4.80;1.80;;;;;;;20.01;57.02;101291.88;5043211;28;20135;-67
2022/10/22 10:24:25;;;;;;;3.72;1.15;;;;;;;20.04;57.09;101299.56;5043905;28;20554;-66
2022/10/22 10:27:01;;;;;;;4.57;1.10;;;;;;;20.07;57.12;101300.16;5043223;28;20032;-67
2022/10/22 10:29:35;;;;;;;3.58;0.98;;;;;;;20.08;56.97;101299.19;5043953;28;20082;-71
2022/10/22 10:32:19;;;;;;;4.28;1.23;;;;;;;20.10;56.79;101299.06;5044460;28;20031;-72
2022/10/22 10:34:56;;;;;;;4.32;1.13;;;;;;;20.13;56.63;101292.69;5043783;28;20424;-63
2022/10/22 10:37:36;;;;;;;6.22;1.60;;;;;;;20.13;56.99;101296.19;5043321;28;20047;-62
2022/10/22 10:40:16;;;;;;;4.88;2.20;;;;;;;20.11;56.65;101298.13;5043604;28;20033;-63
2022/10/22 10:42:50;;;;;;;5.07;1.33;;;;;;;20.11;57.17;101303.41;5044985;28;20032;-62
2022/10/22 10:45:31;;;;;;;5.68;1.30;;;;;;;20.10;57.04;101301.72;5042855;28;20083;-63
2022/10/22 10:48:11;;;;;;;3.85;1.10;;;;;;;20.09;56.92;101308.84;5044234;28;20119;-62
2022/10/22 10:51:08;;;;;;;5.05;1.25;;;;;;;20.10;57.15;101317.59;5044752;28;20424;-62
2022/10/22 10:53:54;;;;;;;6.75;1.52;;;;;;;20.10;57.42;101309.66;5044553;28;20481;-62
2022/10/22 10:56:34;;;;;;;6.68;1.77;;;;;;;20.09;57.13;101307.97;5044181;28;20060;-65
2022/10/22 10:59:15;;;;;;;4.65;1.40;;;;;;;20.02;57.29;101297.06;5044354;28;20037;-63
2022/10/22 11:02:16;;;;;;;7.63;1.60;;;;;;;20.10;57.28;101304.38;5044407;28;20124;-61
2022/10/22 11:05:04;;;;;;;4.72;1.25;;;;;;;20.11;57.51;101306.06;5043904;28;20536;-65
2022/10/22 11:07:37;;;;;;;6.10;1.50;;;;;;;20.11;57.41;101308.72;5044020;28;20495;-65
2022/10/22 11:10:17;;;;;;;7.80;1.63;;;;;;;20.12;57.32;101310.38;5043413;28;20090;-64
2022/10/22 11:12:47;;;;;;;6.07;1.45;;;;;;;20.14;56.90;101300.50;5043377;28;20037;-67
2022/10/22 11:15:34;;;;;;;7.90;1.65;;;;;;;20.12;56.75;101294.50;5043456;28;20048;-64
2022/10/22 11:18:23;;;;;;;8.48;1.70;;;;;;;20.21;57.01;101312.25;5043548;28;20450;-64
2022/10/22 11:21:07;;;;;;;6.13;1.55;;;;;;;20.25;56.91;101310.19;5043558;28;20033;-68
2022/10/22 11:23:43;;;;;;;5.60;1.50;;;;;;;20.20;56.89;101296.50;5041767;28;20095;-68
2022/10/22 11:26:26;;;;;;;7.85;1.50;;;;;;;20.25;56.92;101312.84;5042782;28;20530;-70
2022/10/22 11:28:53;;;;;;;7.60;1.40;;;;;;;20.18;56.79;101293.97;5043316;28;20033;-71
2022/10/22 11:31:22;;;;;;;6.05;1.40;;;;;;;20.21;56.57;101291.09;5042548;28;20028;-70
2022/10/22 11:33:53;;;;;;;5.20;1.50;;;;;;;20.26;56.69;101290.72;5043329;28;20072;-71
2022/10/22 11:36:22;;;;;;;5.28;1.55;;;;;;;20.33;56.44;101293.69;5043128;28;20096;-65